< Typhoon 202119 2021 Season Typhoon 202121 >
Typhoon 202120 (MALOU)
General InformationTrack Information on Google MapsDetailed Wind InformationForecast History on Google MapsAccess Analytics MapList of All Images || NewsDisaster Info.WeblogTrackbackTyphoon FrontTwiphoonTyphoon Now!Typhoon ImaginationJMA Disaster Info. XMLResourceGoogle EarthGE AnimationAtom FeedGeoJSON
Detalied Best Track (Time Zone = UTC)
Year Month Day Hour Lat. Long. Pressure (hPa) Wind (kt) Class Image Chart
2021 10 23 12 11.4 140.6 1008 30 2 Image Chart
2021 10 23 15 11.4 140.6 1008 30 2 Image Chart
2021 10 23 18 11.4 140.6 1006 30 2 Image Chart
2021 10 23 21 11.7 140.6 1006 30 2 Image Chart
2021 10 24 00 12.0 140.5 1008 30 2 Image Chart
2021 10 24 03 12.3 140.4 1006 30 2 Image Chart
2021 10 24 06 12.6 140.4 1006 30 2 Image Chart
2021 10 24 09 13.5 140.2 1006 30 2 Image Chart
2021 10 24 12 13.8 140.0 1008 30 2 Image Chart
2021 10 24 15 14.2 140.0 1008 30 2 Image Chart
2021 10 24 18 15.3 139.8 1004 30 2 Image Chart
2021 10 24 21 15.7 139.0 1004 30 2 Image Chart
2021 10 25 00 16.1 138.8 1002 35 3 Image Chart
2021 10 25 03 17.2 138.5 1002 35 3 Image Chart
2021 10 25 06 17.9 138.2 1000 35 3 Image Chart
2021 10 25 09 17.9 138.5 1000 35 3 Image Chart
2021 10 25 12 18.1 138.4 1000 35 3 Image Chart
2021 10 25 15 18.5 138.6 1000 35 3 Image Chart
2021 10 25 18 18.8 138.3 998 40 3 Image Chart
2021 10 25 21 19.1 138.3 998 40 3 Image Chart
2021 10 26 00 19.4 138.3 994 45 3 Image Chart
2021 10 26 03 19.4 138.4 994 45 3 Image Chart
2021 10 26 06 19.4 138.8 994 45 3 Image Chart
2021 10 26 09 19.9 139.0 994 45 3 Image Chart
2021 10 26 12 20.5 139.2 992 50 4 Image Chart
2021 10 26 15 21.1 139.3 992 50 4 Image Chart
2021 10 26 18 21.4 139.2 990 55 4 Image Chart
2021 10 26 21 21.5 139.1 990 55 4 Image Chart
2021 10 27 00 21.5 139.1 985 60 4 Image Chart
2021 10 27 03 21.5 139.1 985 60 4 Image Chart
2021 10 27 06 21.5 139.1 980 60 4 Image Chart
2021 10 27 09 21.5 139.3 980 60 4 Image Chart
2021 10 27 12 21.8 139.8 980 60 4 Image Chart
2021 10 27 15 22.3 139.8 980 60 4 Image Chart
2021 10 27 18 22.7 140.0 975 65 5 Image Chart
2021 10 27 21 23.2 140.4 975 65 5 Image Chart
2021 10 28 00 23.4 140.6 965 70 5 Image Chart
2021 10 28 03 24.2 141.1 965 70 5 Image Chart
2021 10 28 06 24.9 141.5 965 70 5 Image Chart
2021 10 28 09 25.4 141.9 965 75 5 Image Chart
2021 10 28 12 26.2 142.5 965 75 5 Image Chart
2021 10 28 15 27.0 142.8 965 75 5 Image Chart
2021 10 28 18 27.9 143.3 965 75 5 Image Chart
2021 10 28 21 28.9 144.0 965 75 5 Image Chart
2021 10 29 00 29.7 144.6 965 75 5 Image Chart
2021 10 29 03 30.7 145.5 965 75 5 Image Chart
2021 10 29 06 32.3 147.3 965 75 5 Image Chart
2021 10 29 09 32.9 149.0 970 70 5 Image Chart
2021 10 29 12 34.0 150.0 976 65 6 Image Chart
Japan Meteorological Agency Best Track Data | Correction Date : 2021-10-29
< Typhoon 202119 2021 Season Typhoon 202121 >

Help